sensor_id;sensor_type;location;lat;lon;timestamp;P1;durP1;ratioP1;P2;durP2;ratioP2
52508;SDS011;38420;53.150;6.370;2023-11-19T00:02:18;230.68;;;213.18;;
52508;SDS011;38420;53.150;6.370;2023-11-19T00:04:44;223.05;;;205.52;;
52508;SDS011;38420;53.150;6.370;2023-11-19T00:07:10;219.23;;;202.27;;
52508;SDS011;38420;53.150;6.370;2023-11-19T00:09:37;224.30;;;206.30;;
52508;SDS011;38420;53.150;6.370;2023-11-19T00:12:06;221.57;;;205.13;;
52508;SDS011;38420;53.150;6.370;2023-11-19T00:14:32;213.07;;;196.90;;
52508;SDS011;38420;53.150;6.370;2023-11-19T00:16:59;209.77;;;194.15;;
52508;SDS011;38420;53.150;6.370;2023-11-19T00:19:25;205.20;;;189.07;;
52508;SDS011;38420;53.150;6.370;2023-11-19T00:21:51;205.40;;;189.90;;
52508;SDS011;38420;53.150;6.370;2023-11-19T00:24:17;200.25;;;184.45;;
52508;SDS011;38420;53.150;6.370;2023-11-19T00:26:43;200.50;;;185.35;;
52508;SDS011;38420;53.150;6.370;2023-11-19T00:29:09;197.23;;;180.88;;
52508;SDS011;38420;53.150;6.370;2023-11-19T00:31:35;197.23;;;181.57;;
52508;SDS011;38420;53.150;6.370;2023-11-19T00:34:01;189.68;;;175.85;;
52508;SDS011;38420;53.150;6.370;2023-11-19T00:36:27;174.65;;;161.00;;
52508;SDS011;38420;53.150;6.370;2023-11-19T00:38:53;186.25;;;171.18;;
52508;SDS011;38420;53.150;6.370;2023-11-19T00:41:19;181.98;;;167.95;;
52508;SDS011;38420;53.150;6.370;2023-11-19T00:43:45;189.43;;;175.25;;
52508;SDS011;38420;53.150;6.370;2023-11-19T00:46:11;192.98;;;177.90;;
52508;SDS011;38420;53.150;6.370;2023-11-19T00:48:37;188.43;;;173.32;;
52508;SDS011;38420;53.150;6.370;2023-11-19T00:51:02;181.68;;;167.45;;
52508;SDS011;38420;53.150;6.370;2023-11-19T00:53:31;173.27;;;159.00;;
52508;SDS011;38420;53.150;6.370;2023-11-19T00:55:58;172.70;;;158.68;;
52508;SDS011;38420;53.150;6.370;2023-11-19T00:58:24;165.73;;;152.15;;
52508;SDS011;38420;53.150;6.370;2023-11-19T01:00:50;160.68;;;148.68;;
52508;SDS011;38420;53.150;6.370;2023-11-19T01:03:16;158.48;;;145.38;;
52508;SDS011;38420;53.150;6.370;2023-11-19T01:05:41;151.57;;;139.18;;
52508;SDS011;38420;53.150;6.370;2023-11-19T01:08:07;141.55;;;130.13;;
52508;SDS011;38420;53.150;6.370;2023-11-19T01:10:33;142.35;;;130.60;;
52508;SDS011;38420;53.150;6.370;2023-11-19T01:12:59;132.63;;;121.57;;
52508;SDS011;38420;53.150;6.370;2023-11-19T01:15:25;134.05;;;122.50;;
52508;SDS011;38420;53.150;6.370;2023-11-19T01:17:51;133.32;;;121.60;;
52508;SDS011;38420;53.150;6.370;2023-11-19T01:20:17;134.60;;;122.75;;
52508;SDS011;38420;53.150;6.370;2023-11-19T01:22:42;128.15;;;116.72;;
52508;SDS011;38420;53.150;6.370;2023-11-19T01:25:08;125.72;;;115.18;;
52508;SDS011;38420;53.150;6.370;2023-11-19T01:27:34;124.22;;;114.03;;
52508;SDS011;38420;53.150;6.370;2023-11-19T01:30:03;122.43;;;112.53;;
52508;SDS011;38420;53.150;6.370;2023-11-19T01:32:30;124.80;;;113.93;;
52508;SDS011;38420;53.150;6.370;2023-11-19T01:34:56;116.47;;;106.50;;
52508;SDS011;38420;53.150;6.370;2023-11-19T01:37:22;120.43;;;109.53;;
52508;SDS011;38420;53.150;6.370;2023-11-19T01:39:47;119.20;;;109.30;;
52508;SDS011;38420;53.150;6.370;2023-11-19T01:42:13;121.72;;;111.28;;
52508;SDS011;38420;53.150;6.370;2023-11-19T01:44:38;118.43;;;107.75;;
52508;SDS011;38420;53.150;6.370;2023-11-19T01:47:04;115.40;;;105.72;;
52508;SDS011;38420;53.150;6.370;2023-11-19T01:49:31;104.20;;;94.70;;
52508;SDS011;38420;53.150;6.370;2023-11-19T01:51:57;99.80;;;89.70;;
52508;SDS011;38420;53.150;6.370;2023-11-19T01:54:24;93.18;;;83.82;;
52508;SDS011;38420;53.150;6.370;2023-11-19T01:56:50;88.47;;;80.35;;
52508;SDS011;38420;53.150;6.370;2023-11-19T01:59:17;88.82;;;79.75;;
52508;SDS011;38420;53.150;6.370;2023-11-19T02:01:43;86.88;;;78.05;;
52508;SDS011;38420;53.150;6.370;2023-11-19T02:04:09;88.10;;;78.85;;
52508;SDS011;38420;53.150;6.370;2023-11-19T02:06:40;84.57;;;76.05;;
52508;SDS011;38420;53.150;6.370;2023-11-19T02:09:06;88.97;;;74.63;;
52508;SDS011;38420;53.150;6.370;2023-11-19T02:11:33;88.93;;;80.47;;
52508;SDS011;38420;53.150;6.370;2023-11-19T02:14:00;87.85;;;78.57;;
52508;SDS011;38420;53.150;6.370;2023-11-19T02:16:26;86.70;;;78.00;;
52508;SDS011;38420;53.150;6.370;2023-11-19T02:18:51;80.53;;;72.82;;
52508;SDS011;38420;53.150;6.370;2023-11-19T02:21:17;81.05;;;73.32;;
52508;SDS011;38420;53.150;6.370;2023-11-19T02:23:43;79.35;;;71.60;;
52508;SDS011;38420;53.150;6.370;2023-11-19T02:28:49;77.82;;;69.82;;
52508;SDS011;38420;53.150;6.370;2023-11-19T02:31:15;76.93;;;68.68;;
52508;SDS011;38420;53.150;6.370;2023-11-19T02:33:40;69.70;;;62.92;;
52508;SDS011;38420;53.150;6.370;2023-11-19T02:36:06;72.53;;;63.55;;
52508;SDS011;38420;53.150;6.370;2023-11-19T02:38:33;68.97;;;61.53;;
52508;SDS011;38420;53.150;6.370;2023-11-19T02:41:02;70.25;;;63.45;;
52508;SDS011;38420;53.150;6.370;2023-11-19T02:43:31;66.80;;;59.55;;
52508;SDS011;38420;53.150;6.370;2023-11-19T02:46:03;65.22;;;55.28;;
52508;SDS011;38420;53.150;6.370;2023-11-19T02:48:32;68.30;;;54.83;;
52508;SDS011;38420;53.150;6.370;2023-11-19T02:51:00;55.78;;;49.83;;
52508;SDS011;38420;53.150;6.370;2023-11-19T02:53:32;50.05;;;43.97;;
52508;SDS011;38420;53.150;6.370;2023-11-19T02:55:58;54.65;;;38.92;;
52508;SDS011;38420;53.150;6.370;2023-11-19T02:58:31;54.78;;;37.55;;
52508;SDS011;38420;53.150;6.370;2023-11-19T03:00:57;52.92;;;39.05;;
52508;SDS011;38420;53.150;6.370;2023-11-19T03:03:26;45.47;;;37.17;;
52508;SDS011;38420;53.150;6.370;2023-11-19T03:06:06;54.00;;;37.47;;
52508;SDS011;38420;53.150;6.370;2023-11-19T03:08:35;45.60;;;38.17;;
52508;SDS011;38420;53.150;6.370;2023-11-19T03:11:01;51.50;;;39.75;;
52508;SDS011;38420;53.150;6.370;2023-11-19T03:13:27;46.75;;;40.08;;
52508;SDS011;38420;53.150;6.370;2023-11-19T03:15:52;50.40;;;41.03;;
52508;SDS011;38420;53.150;6.370;2023-11-19T03:18:19;57.58;;;44.17;;
52508;SDS011;38420;53.150;6.370;2023-11-19T03:20:48;58.25;;;42.58;;
52508;SDS011;38420;53.150;6.370;2023-11-19T03:23:14;51.33;;;39.75;;
52508;SDS011;38420;53.150;6.370;2023-11-19T03:25:40;59.97;;;44.67;;
52508;SDS011;38420;53.150;6.370;2023-11-19T03:28:06;66.38;;;42.20;;
52508;SDS011;38420;53.150;6.370;2023-11-19T03:30:31;56.40;;;40.78;;
52508;SDS011;38420;53.150;6.370;2023-11-19T03:32:57;60.00;;;36.85;;
52508;SDS011;38420;53.150;6.370;2023-11-19T03:35:23;58.50;;;38.05;;
52508;SDS011;38420;53.150;6.370;2023-11-19T03:37:50;68.85;;;36.85;;
52508;SDS011;38420;53.150;6.370;2023-11-19T03:40:16;46.83;;;31.15;;
52508;SDS011;38420;53.150;6.370;2023-11-19T03:42:43;52.50;;;29.75;;
52508;SDS011;38420;53.150;6.370;2023-11-19T03:45:12;41.45;;;26.55;;
52508;SDS011;38420;53.150;6.370;2023-11-19T03:47:38;43.15;;;22.55;;
52508;SDS011;38420;53.150;6.370;2023-11-19T03:50:05;45.05;;;23.65;;
52508;SDS011;38420;53.150;6.370;2023-11-19T03:52:32;44.88;;;23.08;;
52508;SDS011;38420;53.150;6.370;2023-11-19T03:54:58;46.47;;;22.02;;
52508;SDS011;38420;53.150;6.370;2023-11-19T03:57:24;45.60;;;19.83;;
52508;SDS011;38420;53.150;6.370;2023-11-19T03:59:50;48.25;;;18.23;;
52508;SDS011;38420;53.150;6.370;2023-11-19T04:02:16;44.90;;;18.30;;
52508;SDS011;38420;53.150;6.370;2023-11-19T04:04:42;45.78;;;16.20;;
52508;SDS011;38420;53.150;6.370;2023-11-19T04:07:07;48.08;;;15.77;;
52508;SDS011;38420;53.150;6.370;2023-11-19T04:09:33;58.78;;;17.92;;
52508;SDS011;38420;53.150;6.370;2023-11-19T04:11:59;53.72;;;15.93;;
52508;SDS011;38420;53.150;6.370;2023-11-19T04:14:25;50.28;;;14.18;;
52508;SDS011;38420;53.150;6.370;2023-11-19T04:16:51;43.78;;;13.32;;
52508;SDS011;38420;53.150;6.370;2023-11-19T04:19:20;48.63;;;12.93;;
52508;SDS011;38420;53.150;6.370;2023-11-19T04:21:47;44.70;;;13.95;;
52508;SDS011;38420;53.150;6.370;2023-11-19T04:24:12;35.60;;;11.18;;
52508;SDS011;38420;53.150;6.370;2023-11-19T04:26:45;44.55;;;11.20;;
52508;SDS011;38420;53.150;6.370;2023-11-19T04:29:15;53.88;;;11.05;;
52508;SDS011;38420;53.150;6.370;2023-11-19T04:31:44;39.78;;;10.88;;
52508;SDS011;38420;53.150;6.370;2023-11-19T04:34:11;49.58;;;11.45;;
52508;SDS011;38420;53.150;6.370;2023-11-19T04:36:37;54.92;;;11.10;;
52508;SDS011;38420;53.150;6.370;2023-11-19T04:39:03;51.88;;;11.00;;
52508;SDS011;38420;53.150;6.370;2023-11-19T04:41:35;43.08;;;10.30;;
52508;SDS011;38420;53.150;6.370;2023-11-19T04:44:01;53.30;;;10.20;;
52508;SDS011;38420;53.150;6.370;2023-11-19T04:46:27;42.75;;;9.68;;
52508;SDS011;38420;53.150;6.370;2023-11-19T04:48:52;50.65;;;10.40;;
52508;SDS011;38420;53.150;6.370;2023-11-19T04:51:18;48.38;;;9.77;;
52508;SDS011;38420;53.150;6.370;2023-11-19T04:53:43;48.70;;;10.75;;
52508;SDS011;38420;53.150;6.370;2023-11-19T04:56:12;43.72;;;8.75;;
52508;SDS011;38420;53.150;6.370;2023-11-19T04:58:38;47.47;;;8.98;;
52508;SDS011;38420;53.150;6.370;2023-11-19T05:01:04;57.80;;;9.15;;
52508;SDS011;38420;53.150;6.370;2023-11-19T05:03:30;52.72;;;9.35;;
52508;SDS011;38420;53.150;6.370;2023-11-19T05:05:56;59.13;;;9.38;;
52508;SDS011;38420;53.150;6.370;2023-11-19T05:08:22;49.08;;;10.45;;
52508;SDS011;38420;53.150;6.370;2023-11-19T05:10:48;37.45;;;8.18;;
52508;SDS011;38420;53.150;6.370;2023-11-19T05:13:14;52.15;;;9.80;;
52508;SDS011;38420;53.150;6.370;2023-11-19T05:15:40;44.85;;;9.07;;
52508;SDS011;38420;53.150;6.370;2023-11-19T05:18:06;51.85;;;9.00;;
52508;SDS011;38420;53.150;6.370;2023-11-19T05:20:31;48.95;;;9.40;;
52508;SDS011;38420;53.150;6.370;2023-11-19T05:22:57;51.10;;;8.27;;
52508;SDS011;38420;53.150;6.370;2023-11-19T05:25:25;47.33;;;9.50;;
52508;SDS011;38420;53.150;6.370;2023-11-19T05:27:51;61.20;;;8.32;;
52508;SDS011;38420;53.150;6.370;2023-11-19T05:30:17;39.85;;;7.57;;
52508;SDS011;38420;53.150;6.370;2023-11-19T05:32:43;46.85;;;10.13;;
52508;SDS011;38420;53.150;6.370;2023-11-19T05:35:09;50.00;;;9.35;;
52508;SDS011;38420;53.150;6.370;2023-11-19T05:37:36;60.97;;;9.45;;
52508;SDS011;38420;53.150;6.370;2023-11-19T05:40:01;43.33;;;7.95;;
52508;SDS011;38420;53.150;6.370;2023-11-19T05:42:29;49.17;;;8.27;;
52508;SDS011;38420;53.150;6.370;2023-11-19T05:44:54;47.60;;;8.80;;
52508;SDS011;38420;53.150;6.370;2023-11-19T05:47:20;42.58;;;8.10;;
52508;SDS011;38420;53.150;6.370;2023-11-19T05:49:46;52.10;;;9.82;;
52508;SDS011;38420;53.150;6.370;2023-11-19T05:52:11;55.63;;;9.43;;
52508;SDS011;38420;53.150;6.370;2023-11-19T05:54:37;44.30;;;8.43;;
52508;SDS011;38420;53.150;6.370;2023-11-19T05:57:05;44.35;;;7.85;;
52508;SDS011;38420;53.150;6.370;2023-11-19T05:59:34;51.88;;;9.45;;
52508;SDS011;38420;53.150;6.370;2023-11-19T06:02:01;39.05;;;8.35;;
52508;SDS011;38420;53.150;6.370;2023-11-19T06:04:27;39.88;;;7.13;;
52508;SDS011;38420;53.150;6.370;2023-11-19T06:06:53;43.47;;;7.95;;
52508;SDS011;38420;53.150;6.370;2023-11-19T06:09:20;47.47;;;8.73;;
52508;SDS011;38420;53.150;6.370;2023-11-19T06:11:48;52.75;;;8.02;;
52508;SDS011;38420;53.150;6.370;2023-11-19T06:14:14;45.53;;;7.55;;
52508;SDS011;38420;53.150;6.370;2023-11-19T06:16:40;42.67;;;7.60;;
52508;SDS011;38420;53.150;6.370;2023-11-19T06:19:05;42.35;;;7.80;;
52508;SDS011;38420;53.150;6.370;2023-11-19T06:21:31;49.42;;;8.40;;
52508;SDS011;38420;53.150;6.370;2023-11-19T06:23:56;42.45;;;8.48;;
52508;SDS011;38420;53.150;6.370;2023-11-19T06:26:24;43.97;;;8.52;;
52508;SDS011;38420;53.150;6.370;2023-11-19T06:28:50;50.60;;;9.65;;
52508;SDS011;38420;53.150;6.370;2023-11-19T06:31:15;51.55;;;9.48;;
52508;SDS011;38420;53.150;6.370;2023-11-19T06:33:41;41.35;;;9.65;;
52508;SDS011;38420;53.150;6.370;2023-11-19T06:36:07;54.13;;;9.07;;
52508;SDS011;38420;53.150;6.370;2023-11-19T06:38:34;39.08;;;8.35;;
52508;SDS011;38420;53.150;6.370;2023-11-19T06:41:00;49.28;;;8.88;;
52508;SDS011;38420;53.150;6.370;2023-11-19T06:43:26;46.65;;;8.07;;
52508;SDS011;38420;53.150;6.370;2023-11-19T06:45:53;47.55;;;8.98;;
52508;SDS011;38420;53.150;6.370;2023-11-19T06:48:19;43.25;;;8.35;;
52508;SDS011;38420;53.150;6.370;2023-11-19T06:50:44;48.28;;;7.47;;
52508;SDS011;38420;53.150;6.370;2023-11-19T06:53:10;39.45;;;7.95;;
52508;SDS011;38420;53.150;6.370;2023-11-19T06:55:36;48.97;;;7.78;;
52508;SDS011;38420;53.150;6.370;2023-11-19T06:58:02;44.92;;;8.27;;
52508;SDS011;38420;53.150;6.370;2023-11-19T07:00:28;41.25;;;7.70;;
52508;SDS011;38420;53.150;6.370;2023-11-19T07:02:54;55.03;;;9.25;;
52508;SDS011;38420;53.150;6.370;2023-11-19T07:05:20;48.15;;;7.85;;
52508;SDS011;38420;53.150;6.370;2023-11-19T07:07:46;39.10;;;7.25;;
52508;SDS011;38420;53.150;6.370;2023-11-19T07:10:11;41.72;;;8.57;;
52508;SDS011;38420;53.150;6.370;2023-11-19T07:12:37;47.00;;;7.85;;
52508;SDS011;38420;53.150;6.370;2023-11-19T07:15:03;54.85;;;8.85;;
52508;SDS011;38420;53.150;6.370;2023-11-19T07:17:30;43.10;;;8.27;;
52508;SDS011;38420;53.150;6.370;2023-11-19T07:19:56;53.80;;;7.88;;
52508;SDS011;38420;53.150;6.370;2023-11-19T07:22:24;42.38;;;7.43;;
52508;SDS011;38420;53.150;6.370;2023-11-19T07:24:50;52.75;;;8.35;;
52508;SDS011;38420;53.150;6.370;2023-11-19T07:27:16;39.10;;;7.82;;
52508;SDS011;38420;53.150;6.370;2023-11-19T07:29:43;54.28;;;8.70;;
52508;SDS011;38420;53.150;6.370;2023-11-19T07:32:09;53.60;;;10.45;;
52508;SDS011;38420;53.150;6.370;2023-11-19T07:34:35;40.40;;;8.15;;
52508;SDS011;38420;53.150;6.370;2023-11-19T07:37:01;53.25;;;9.43;;
52508;SDS011;38420;53.150;6.370;2023-11-19T07:39:28;38.47;;;8.93;;
52508;SDS011;38420;53.150;6.370;2023-11-19T07:41:54;45.92;;;8.73;;
52508;SDS011;38420;53.150;6.370;2023-11-19T07:44:20;44.95;;;7.78;;
52508;SDS011;38420;53.150;6.370;2023-11-19T07:46:46;46.33;;;8.07;;
52508;SDS011;38420;53.150;6.370;2023-11-19T07:49:13;47.97;;;8.32;;
52508;SDS011;38420;53.150;6.370;2023-11-19T07:51:38;49.10;;;9.10;;
52508;SDS011;38420;53.150;6.370;2023-11-19T07:54:04;37.05;;;7.82;;
52508;SDS011;38420;53.150;6.370;2023-11-19T07:56:30;51.88;;;8.63;;
52508;SDS011;38420;53.150;6.370;2023-11-19T07:58:57;48.83;;;8.38;;
52508;SDS011;38420;53.150;6.370;2023-11-19T08:01:22;34.35;;;7.60;;
52508;SDS011;38420;53.150;6.370;2023-11-19T08:03:48;40.13;;;7.90;;
52508;SDS011;38420;53.150;6.370;2023-11-19T08:06:14;43.55;;;8.10;;
52508;SDS011;38420;53.150;6.370;2023-11-19T08:08:40;43.15;;;8.20;;
52508;SDS011;38420;53.150;6.370;2023-11-19T08:11:05;42.50;;;8.40;;
52508;SDS011;38420;53.150;6.370;2023-11-19T08:13:31;40.17;;;7.10;;
52508;SDS011;38420;53.150;6.370;2023-11-19T08:15:57;46.47;;;8.45;;
52508;SDS011;38420;53.150;6.370;2023-11-19T08:18:23;47.50;;;8.32;;
52508;SDS011;38420;53.150;6.370;2023-11-19T08:20:49;53.95;;;9.70;;
52508;SDS011;38420;53.150;6.370;2023-11-19T08:23:18;45.53;;;7.82;;
52508;SDS011;38420;53.150;6.370;2023-11-19T08:25:44;46.20;;;7.88;;
52508;SDS011;38420;53.150;6.370;2023-11-19T08:28:10;44.33;;;8.25;;
52508;SDS011;38420;53.150;6.370;2023-11-19T08:30:36;35.58;;;7.55;;
52508;SDS011;38420;53.150;6.370;2023-11-19T08:33:01;38.90;;;8.25;;
52508;SDS011;38420;53.150;6.370;2023-11-19T08:35:31;41.85;;;5.90;;
52508;SDS011;38420;53.150;6.370;2023-11-19T08:37:57;41.15;;;7.10;;
52508;SDS011;38420;53.150;6.370;2023-11-19T08:40:24;41.78;;;6.70;;
52508;SDS011;38420;53.150;6.370;2023-11-19T08:42:51;45.15;;;7.47;;
52508;SDS011;38420;53.150;6.370;2023-11-19T08:45:16;42.33;;;8.52;;
52508;SDS011;38420;53.150;6.370;2023-11-19T08:47:42;34.47;;;6.70;;
52508;SDS011;38420;53.150;6.370;2023-11-19T08:50:10;51.30;;;7.05;;
52508;SDS011;38420;53.150;6.370;2023-11-19T08:52:36;39.75;;;6.00;;
52508;SDS011;38420;53.150;6.370;2023-11-19T08:55:02;46.78;;;8.85;;
52508;SDS011;38420;53.150;6.370;2023-11-19T08:57:30;48.15;;;7.88;;
52508;SDS011;38420;53.150;6.370;2023-11-19T08:59:56;43.38;;;7.97;;
52508;SDS011;38420;53.150;6.370;2023-11-19T09:02:21;49.08;;;6.65;;
52508;SDS011;38420;53.150;6.370;2023-11-19T09:04:47;38.50;;;6.97;;
52508;SDS011;38420;53.150;6.370;2023-11-19T09:07:13;40.88;;;7.18;;
52508;SDS011;38420;53.150;6.370;2023-11-19T09:09:38;44.42;;;7.03;;
52508;SDS011;38420;53.150;6.370;2023-11-19T09:12:04;45.90;;;8.25;;
52508;SDS011;38420;53.150;6.370;2023-11-19T09:14:30;47.15;;;9.23;;
52508;SDS011;38420;53.150;6.370;2023-11-19T09:16:56;45.35;;;8.65;;
52508;SDS011;38420;53.150;6.370;2023-11-19T09:19:21;39.17;;;7.50;;
52508;SDS011;38420;53.150;6.370;2023-11-19T09:21:47;49.47;;;8.05;;
52508;SDS011;38420;53.150;6.370;2023-11-19T09:24:14;37.85;;;6.88;;
52508;SDS011;38420;53.150;6.370;2023-11-19T09:26:40;33.28;;;6.03;;
52508;SDS011;38420;53.150;6.370;2023-11-19T09:29:09;42.20;;;8.50;;
52508;SDS011;38420;53.150;6.370;2023-11-19T09:31:35;39.20;;;5.88;;
52508;SDS011;38420;53.150;6.370;2023-11-19T09:34:03;39.50;;;7.20;;
52508;SDS011;38420;53.150;6.370;2023-11-19T09:36:28;28.52;;;5.63;;
52508;SDS011;38420;53.150;6.370;2023-11-19T09:38:54;38.00;;;6.78;;
52508;SDS011;38420;53.150;6.370;2023-11-19T09:41:20;35.75;;;7.35;;
52508;SDS011;38420;53.150;6.370;2023-11-19T09:43:45;40.45;;;6.15;;
52508;SDS011;38420;53.150;6.370;2023-11-19T09:46:15;36.92;;;7.05;;
52508;SDS011;38420;53.150;6.370;2023-11-19T09:48:41;40.08;;;6.10;;
52508;SDS011;38420;53.150;6.370;2023-11-19T09:51:08;44.92;;;6.63;;
52508;SDS011;38420;53.150;6.370;2023-11-19T09:53:35;35.28;;;7.38;;
52508;SDS011;38420;53.150;6.370;2023-11-19T09:56:02;46.80;;;7.45;;
52508;SDS011;38420;53.150;6.370;2023-11-19T09:58:29;39.35;;;5.93;;
52508;SDS011;38420;53.150;6.370;2023-11-19T10:00:56;30.33;;;5.18;;
52508;SDS011;38420;53.150;6.370;2023-11-19T10:03:29;39.40;;;5.45;;
52508;SDS011;38420;53.150;6.370;2023-11-19T10:05:59;38.25;;;6.90;;
52508;SDS011;38420;53.150;6.370;2023-11-19T10:08:26;52.10;;;8.02;;
52508;SDS011;38420;53.150;6.370;2023-11-19T10:10:52;50.13;;;6.70;;
52508;SDS011;38420;53.150;6.370;2023-11-19T10:13:18;34.25;;;6.07;;
52508;SDS011;38420;53.150;6.370;2023-11-19T10:15:44;45.47;;;7.88;;
52508;SDS011;38420;53.150;6.370;2023-11-19T10:18:10;38.35;;;6.90;;
52508;SDS011;38420;53.150;6.370;2023-11-19T10:20:44;47.08;;;8.30;;
52508;SDS011;38420;53.150;6.370;2023-11-19T10:23:10;31.25;;;6.30;;
52508;SDS011;38420;53.150;6.370;2023-11-19T10:25:37;33.78;;;6.82;;
52508;SDS011;38420;53.150;6.370;2023-11-19T10:28:02;37.35;;;6.03;;
52508;SDS011;38420;53.150;6.370;2023-11-19T10:30:28;36.72;;;6.38;;
52508;SDS011;38420;53.150;6.370;2023-11-19T10:35:31;36.33;;;6.43;;
52508;SDS011;38420;53.150;6.370;2023-11-19T10:38:13;36.80;;;6.70;;
52508;SDS011;38420;53.150;6.370;2023-11-19T10:40:40;38.85;;;6.38;;
52508;SDS011;38420;53.150;6.370;2023-11-19T10:43:06;29.55;;;6.30;;
52508;SDS011;38420;53.150;6.370;2023-11-19T10:45:33;39.20;;;8.35;;
52508;SDS011;38420;53.150;6.370;2023-11-19T10:47:59;41.92;;;5.13;;
52508;SDS011;38420;53.150;6.370;2023-11-19T10:50:26;41.38;;;5.65;;
52508;SDS011;38420;53.150;6.370;2023-11-19T10:52:56;48.10;;;6.75;;
52508;SDS011;38420;53.150;6.370;2023-11-19T10:55:26;29.35;;;5.60;;
52508;SDS011;38420;53.150;6.370;2023-11-19T10:57:53;31.58;;;6.85;;
52508;SDS011;38420;53.150;6.370;2023-11-19T11:00:23;44.28;;;6.35;;
52508;SDS011;38420;53.150;6.370;2023-11-19T11:02:50;28.13;;;5.78;;
52508;SDS011;38420;53.150;6.370;2023-11-19T11:05:20;37.38;;;6.75;;
52508;SDS011;38420;53.150;6.370;2023-11-19T11:07:47;41.13;;;5.97;;
52508;SDS011;38420;53.150;6.370;2023-11-19T11:10:16;35.53;;;6.28;;
52508;SDS011;38420;53.150;6.370;2023-11-19T11:12:47;30.05;;;5.30;;
52508;SDS011;38420;53.150;6.370;2023-11-19T11:15:15;32.72;;;5.78;;
52508;SDS011;38420;53.150;6.370;2023-11-19T11:17:43;36.83;;;6.25;;
52508;SDS011;38420;53.150;6.370;2023-11-19T11:20:10;32.72;;;4.85;;
52508;SDS011;38420;53.150;6.370;2023-11-19T11:22:44;28.10;;;5.15;;
52508;SDS011;38420;53.150;6.370;2023-11-19T11:25:41;29.63;;;6.05;;
52508;SDS011;38420;53.150;6.370;2023-11-19T11:31:23;37.72;;;6.13;;
52508;SDS011;38420;53.150;6.370;2023-11-19T11:34:29;35.38;;;5.65;;
52508;SDS011;38420;53.150;6.370;2023-11-19T11:39:36;34.63;;;6.95;;
52508;SDS011;38420;53.150;6.370;2023-11-19T11:50:09;32.72;;;5.70;;
52508;SDS011;38420;53.150;6.370;2023-11-19T11:55:26;34.08;;;6.10;;
52508;SDS011;38420;53.150;6.370;2023-11-19T11:57:52;35.38;;;5.13;;
52508;SDS011;38420;53.150;6.370;2023-11-19T12:00:38;41.03;;;6.72;;
52508;SDS011;38420;53.150;6.370;2023-11-19T12:03:05;33.55;;;6.68;;
52508;SDS011;38420;53.150;6.370;2023-11-19T12:05:32;32.58;;;6.57;;
52508;SDS011;38420;53.150;6.370;2023-11-19T12:08:05;33.03;;;5.55;;
52508;SDS011;38420;53.150;6.370;2023-11-19T12:10:36;40.35;;;5.35;;
52508;SDS011;38420;53.150;6.370;2023-11-19T12:13:08;43.20;;;6.47;;
52508;SDS011;38420;53.150;6.370;2023-11-19T12:15:43;24.83;;;4.43;;
52508;SDS011;38420;53.150;6.370;2023-11-19T12:18:19;32.67;;;6.20;;
52508;SDS011;38420;53.150;6.370;2023-11-19T12:20:46;30.15;;;4.75;;
52508;SDS011;38420;53.150;6.370;2023-11-19T12:23:11;34.33;;;6.20;;
52508;SDS011;38420;53.150;6.370;2023-11-19T12:25:37;28.02;;;4.90;;
52508;SDS011;38420;53.150;6.370;2023-11-19T12:28:03;29.40;;;4.72;;
52508;SDS011;38420;53.150;6.370;2023-11-19T12:30:29;31.77;;;4.80;;
52508;SDS011;38420;53.150;6.370;2023-11-19T12:32:55;29.60;;;5.07;;
52508;SDS011;38420;53.150;6.370;2023-11-19T12:35:21;32.67;;;5.88;;
52508;SDS011;38420;53.150;6.370;2023-11-19T12:37:49;28.48;;;6.38;;
52508;SDS011;38420;53.150;6.370;2023-11-19T12:40:16;34.97;;;5.25;;
52508;SDS011;38420;53.150;6.370;2023-11-19T12:42:51;36.35;;;6.35;;
52508;SDS011;38420;53.150;6.370;2023-11-19T12:45:18;34.13;;;5.05;;
52508;SDS011;38420;53.150;6.370;2023-11-19T12:47:46;31.67;;;6.90;;
52508;SDS011;38420;53.150;6.370;2023-11-19T12:50:13;21.90;;;4.95;;
52508;SDS011;38420;53.150;6.370;2023-11-19T12:52:39;34.58;;;5.55;;
52508;SDS011;38420;53.150;6.370;2023-11-19T12:55:06;27.25;;;5.03;;
52508;SDS011;38420;53.150;6.370;2023-11-19T12:57:51;31.63;;;5.30;;
52508;SDS011;38420;53.150;6.370;2023-11-19T13:00:20;22.50;;;4.45;;
52508;SDS011;38420;53.150;6.370;2023-11-19T13:02:51;24.35;;;5.38;;
52508;SDS011;38420;53.150;6.370;2023-11-19T13:05:22;30.70;;;5.18;;
52508;SDS011;38420;53.150;6.370;2023-11-19T13:07:57;33.53;;;5.00;;
52508;SDS011;38420;53.150;6.370;2023-11-19T13:10:34;33.55;;;5.68;;
52508;SDS011;38420;53.150;6.370;2023-11-19T13:13:18;25.65;;;4.63;;
52508;SDS011;38420;53.150;6.370;2023-11-19T13:15:45;32.30;;;5.35;;
52508;SDS011;38420;53.150;6.370;2023-11-19T13:18:11;24.42;;;4.18;;
52508;SDS011;38420;53.150;6.370;2023-11-19T13:20:37;26.13;;;5.00;;
52508;SDS011;38420;53.150;6.370;2023-11-19T13:23:04;24.73;;;4.70;;
52508;SDS011;38420;53.150;6.370;2023-11-19T13:25:31;31.92;;;5.03;;
52508;SDS011;38420;53.150;6.370;2023-11-19T13:27:59;28.52;;;5.10;;
52508;SDS011;38420;53.150;6.370;2023-11-19T13:30:25;27.30;;;4.80;;
52508;SDS011;38420;53.150;6.370;2023-11-19T13:32:52;27.83;;;4.50;;
52508;SDS011;38420;53.150;6.370;2023-11-19T13:35:19;36.47;;;5.72;;
52508;SDS011;38420;53.150;6.370;2023-11-19T13:37:45;26.40;;;6.13;;
52508;SDS011;38420;53.150;6.370;2023-11-19T13:40:11;35.53;;;7.78;;
52508;SDS011;38420;53.150;6.370;2023-11-19T13:42:43;29.20;;;4.93;;
52508;SDS011;38420;53.150;6.370;2023-11-19T13:45:10;26.17;;;5.30;;
52508;SDS011;38420;53.150;6.370;2023-11-19T13:47:41;37.20;;;6.18;;
52508;SDS011;38420;53.150;6.370;2023-11-19T13:52:36;29.48;;;5.40;;
52508;SDS011;38420;53.150;6.370;2023-11-19T13:55:03;34.13;;;6.53;;
52508;SDS011;38420;53.150;6.370;2023-11-19T13:57:34;28.98;;;5.07;;
52508;SDS011;38420;53.150;6.370;2023-11-19T14:00:01;35.97;;;6.60;;
52508;SDS011;38420;53.150;6.370;2023-11-19T14:02:44;23.77;;;4.43;;
52508;SDS011;38420;53.150;6.370;2023-11-19T14:05:14;27.77;;;4.50;;
52508;SDS011;38420;53.150;6.370;2023-11-19T14:07:42;28.13;;;5.65;;
52508;SDS011;38420;53.150;6.370;2023-11-19T14:10:09;29.15;;;4.35;;
52508;SDS011;38420;53.150;6.370;2023-11-19T14:12:36;27.80;;;4.97;;
52508;SDS011;38420;53.150;6.370;2023-11-19T14:15:03;34.17;;;6.28;;
52508;SDS011;38420;53.150;6.370;2023-11-19T14:17:31;36.13;;;5.85;;
52508;SDS011;38420;53.150;6.370;2023-11-19T14:19:57;29.75;;;5.68;;
52508;SDS011;38420;53.150;6.370;2023-11-19T14:22:23;41.38;;;7.90;;
52508;SDS011;38420;53.150;6.370;2023-11-19T14:24:49;28.45;;;4.53;;
52508;SDS011;38420;53.150;6.370;2023-11-19T14:27:15;39.75;;;5.30;;
52508;SDS011;38420;53.150;6.370;2023-11-19T14:29:42;37.15;;;4.40;;
52508;SDS011;38420;53.150;6.370;2023-11-19T14:32:10;22.85;;;4.30;;
52508;SDS011;38420;53.150;6.370;2023-11-19T14:34:36;28.27;;;5.07;;
52508;SDS011;38420;53.150;6.370;2023-11-19T14:37:01;30.35;;;5.90;;
52508;SDS011;38420;53.150;6.370;2023-11-19T14:39:27;29.80;;;6.32;;
52508;SDS011;38420;53.150;6.370;2023-11-19T14:41:56;31.42;;;5.88;;
52508;SDS011;38420;53.150;6.370;2023-11-19T14:44:26;23.92;;;4.60;;
52508;SDS011;38420;53.150;6.370;2023-11-19T14:46:52;34.08;;;5.28;;
52508;SDS011;38420;53.150;6.370;2023-11-19T14:49:17;29.90;;;4.85;;
52508;SDS011;38420;53.150;6.370;2023-11-19T14:51:43;35.05;;;6.10;;